createdAt,value
2022-09-15T00:00:53.354Z,10.00
2022-09-15T00:01:54.017Z,9.20
2022-09-15T00:02:53.359Z,7.20
2022-09-15T00:03:53.377Z,9.60
2022-09-15T00:04:53.386Z,10.40
2022-09-15T00:05:52.997Z,9.20
2022-09-15T00:06:53.006Z,10.70
2022-09-15T00:07:53.877Z,10.50
2022-09-15T00:08:52.986Z,9.60
2022-09-15T00:09:52.967Z,9.80
2022-09-15T00:10:53.254Z,10.60
2022-09-15T00:11:52.956Z,9.60
2022-09-15T00:12:53.656Z,10.40
2022-09-15T00:13:53.386Z,10.70
2022-09-15T00:14:53.731Z,9.70
2022-09-15T00:15:53.627Z,9.80
2022-09-15T00:16:53.938Z,11.20
2022-09-15T00:17:52.902Z,11.10
2022-09-15T00:18:53.156Z,11.20
2022-09-15T00:19:52.838Z,11.30
2022-09-15T00:20:52.846Z,10.20
2022-09-15T00:21:52.827Z,11.10
2022-09-15T00:22:52.816Z,10.00
2022-09-15T00:23:53.627Z,9.80
2022-09-15T00:24:52.829Z,10.20
2022-09-15T00:25:52.777Z,9.40
2022-09-15T00:26:53.611Z,9.80
2022-09-15T00:27:52.748Z,9.90
2022-09-15T00:28:52.811Z,8.70
2022-09-15T00:29:52.807Z,8.70
2022-09-15T00:30:52.886Z,7.80
2022-09-15T00:31:52.706Z,6.70
2022-09-15T00:32:52.707Z,7.90
2022-09-15T00:33:52.746Z,6.20
2022-09-15T00:34:52.786Z,7.10
2022-09-15T00:35:52.827Z,5.90
2022-09-15T00:36:52.674Z,6.60
2022-09-15T00:37:52.836Z,7.20
2022-09-15T00:38:52.637Z,7.90
2022-09-15T00:39:52.708Z,7.70
2022-09-15T00:40:52.627Z,7.20
2022-09-15T00:41:52.601Z,7.30
2022-09-15T00:42:52.588Z,7.20
2022-09-15T00:43:52.777Z,7.20
2022-09-15T00:44:52.557Z,6.50
2022-09-15T00:45:53.364Z,7.70
2022-09-15T00:47:15.260Z,7.40
2022-09-15T00:47:53.525Z,6.30
2022-09-15T00:48:52.566Z,6.80
2022-09-15T00:49:54.867Z,6.60
2022-09-15T00:50:54.224Z,7.20
2022-09-15T00:51:52.650Z,7.10
2022-09-15T00:52:52.469Z,7.70
2022-09-15T00:53:52.437Z,7.80
2022-09-15T00:54:52.669Z,7.30
2022-09-15T00:55:52.657Z,7.00
2022-09-15T00:56:52.440Z,7.60
2022-09-15T00:57:53.178Z,7.50
2022-09-15T00:58:52.472Z,7.40
2022-09-15T00:59:52.367Z,7.40
2022-09-15T01:00:52.421Z,7.80
2022-09-15T01:01:52.389Z,7.20
2022-09-15T01:02:52.568Z,7.10
2022-09-15T01:03:52.322Z,7.10
2022-09-15T01:04:56.088Z,7.10
2022-09-15T01:05:53.398Z,7.20
2022-09-15T01:06:52.369Z,7.00
2022-09-15T01:07:53.238Z,7.00
2022-09-15T01:08:52.447Z,7.10
2022-09-15T01:09:52.867Z,7.00
2022-09-15T01:10:52.258Z,6.20
2022-09-15T01:11:52.238Z,7.10
2022-09-15T01:12:52.228Z,7.00
2022-09-15T01:13:52.249Z,6.50
2022-09-15T01:14:52.209Z,6.20
2022-09-15T01:15:52.196Z,6.50
2022-09-15T01:16:53.074Z,6.00
2022-09-15T01:17:53.048Z,6.40
2022-09-15T01:18:52.949Z,6.30
2022-09-15T01:19:52.148Z,6.00
2022-09-15T01:20:52.128Z,6.70
2022-09-15T01:21:55.617Z,5.90
2022-09-15T01:22:53.102Z,6.20
2022-09-15T01:23:52.171Z,5.50
2022-09-15T01:24:52.898Z,5.70
2022-09-15T01:25:52.108Z,5.80
2022-09-15T01:26:52.129Z,6.20
2022-09-15T01:27:52.266Z,6.20
2022-09-15T01:28:52.037Z,5.50
2022-09-15T01:29:52.357Z,4.70
2022-09-15T01:30:52.008Z,5.60
2022-09-15T01:31:52.028Z,5.40
2022-09-15T01:32:52.357Z,5.00
2022-09-15T01:33:51.987Z,5.00
2022-09-15T01:34:51.989Z,5.10
2022-09-15T01:35:51.960Z,5.60
2022-09-15T01:36:52.079Z,5.30
2022-09-15T01:37:52.660Z,4.60
2022-09-15T01:38:52.992Z,5.10
2022-09-15T01:39:51.952Z,5.20
2022-09-15T01:40:51.903Z,5.20
2022-09-15T01:41:51.889Z,5.70
2022-09-15T01:42:51.868Z,4.60
2022-09-15T01:43:51.916Z,4.80
2022-09-15T01:44:51.857Z,5.20
2022-09-15T01:45:51.895Z,5.00
2022-09-15T01:46:51.889Z,5.20
2022-09-15T01:47:51.825Z,4.80
2022-09-15T01:48:51.878Z,5.20
2022-09-15T01:49:51.798Z,5.20
2022-09-15T01:50:51.839Z,5.30
2022-09-15T01:51:51.798Z,5.20
2022-09-15T01:52:51.761Z,5.40
2022-09-15T01:53:51.855Z,4.90
2022-09-15T01:54:51.724Z,5.40
2022-09-15T01:55:51.729Z,4.90
2022-09-15T01:56:51.734Z,4.50
2022-09-15T01:57:52.393Z,4.40
2022-09-15T01:58:52.490Z,5.40
2022-09-15T01:59:52.613Z,4.90
2022-09-15T02:00:51.739Z,5.50
2022-09-15T02:01:52.070Z,5.40
2022-09-15T02:02:51.629Z,5.50
2022-09-15T02:03:51.632Z,5.90
2022-09-15T02:04:51.623Z,5.00
2022-09-15T02:05:51.641Z,5.00
2022-09-15T02:06:51.590Z,4.80
2022-09-15T02:07:51.600Z,5.00
2022-09-15T02:08:52.492Z,5.70
2022-09-15T02:09:52.420Z,5.80
2022-09-15T02:10:51.538Z,6.10
2022-09-15T02:11:51.641Z,5.70
2022-09-15T02:12:51.521Z,5.40
2022-09-15T02:13:51.528Z,5.00
2022-09-15T02:14:51.665Z,5.70
2022-09-15T02:15:51.500Z,5.10
2022-09-15T02:16:51.508Z,5.60
2022-09-15T02:17:51.690Z,6.30
2022-09-15T02:18:51.469Z,5.30
2022-09-15T02:19:52.226Z,6.00
2022-09-15T02:20:51.470Z,5.60
2022-09-15T02:21:51.432Z,5.70
2022-09-15T02:22:51.430Z,5.40
2022-09-15T02:23:51.477Z,6.30
2022-09-15T02:24:52.249Z,6.20
2022-09-15T02:25:51.420Z,6.10
2022-09-15T02:26:51.369Z,5.20
2022-09-15T02:27:51.409Z,5.20
2022-09-15T02:28:52.168Z,5.60
2022-09-15T02:29:51.379Z,5.40
2022-09-15T02:30:51.419Z,5.50
2022-09-15T02:31:51.409Z,5.60
2022-09-15T02:32:51.299Z,5.80
2022-09-15T02:33:51.299Z,5.80
2022-09-15T02:34:51.271Z,5.50
2022-09-15T02:35:51.270Z,5.50
2022-09-15T02:36:51.430Z,5.60
2022-09-15T02:37:51.259Z,5.50
2022-09-15T02:38:51.349Z,5.10
2022-09-15T02:39:52.143Z,5.60
2022-09-15T02:40:51.214Z,5.70
2022-09-15T02:41:52.173Z,6.00
2022-09-15T02:42:51.189Z,6.10
2022-09-15T02:43:51.429Z,5.20
2022-09-15T02:44:51.419Z,6.00
2022-09-15T02:45:51.228Z,5.80
2022-09-15T02:46:51.929Z,6.10
2022-09-15T02:47:51.160Z,6.70
2022-09-15T02:48:51.130Z,7.10
2022-09-15T02:49:51.920Z,7.00
2022-09-15T02:50:51.100Z,6.50
2022-09-15T02:51:51.098Z,6.50
2022-09-15T02:52:51.860Z,5.80
2022-09-15T02:53:51.217Z,6.70
2022-09-15T02:54:51.079Z,6.50
2022-09-15T02:55:51.058Z,7.00
2022-09-15T02:56:51.040Z,6.10
2022-09-15T02:57:51.773Z,6.60
2022-09-15T02:58:51.803Z,7.60
2022-09-15T02:59:51.061Z,6.20
2022-09-15T03:00:51.013Z,7.00
2022-09-15T03:01:51.034Z,6.70
2022-09-15T03:02:50.968Z,6.80
2022-09-15T03:03:51.690Z,7.10
2022-09-15T03:04:51.740Z,6.00
2022-09-15T03:05:50.951Z,6.30
2022-09-15T03:06:50.921Z,6.30
2022-09-15T03:07:50.930Z,7.60
2022-09-15T03:08:51.070Z,6.60
2022-09-15T03:09:50.938Z,6.10
2022-09-15T03:10:50.900Z,7.20
2022-09-15T03:11:50.884Z,6.30
2022-09-15T03:12:50.850Z,7.10
2022-09-15T03:13:50.861Z,7.50
2022-09-15T03:14:50.862Z,7.50
2022-09-15T03:15:51.012Z,7.10
2022-09-15T03:16:50.821Z,7.20
2022-09-15T03:17:50.818Z,6.80
2022-09-15T03:18:50.793Z,7.00
2022-09-15T03:19:50.830Z,6.70
2022-09-15T03:20:50.780Z,7.00
2022-09-15T03:21:50.780Z,6.00
2022-09-15T03:22:50.740Z,6.60
2022-09-15T03:23:50.837Z,6.60
2022-09-15T03:24:50.729Z,6.90
2022-09-15T03:25:51.511Z,6.30
2022-09-15T03:26:51.001Z,6.80
2022-09-15T03:27:50.702Z,6.20
2022-09-15T03:28:50.700Z,6.80
2022-09-15T03:29:50.690Z,7.00
2022-09-15T03:30:50.665Z,7.70
2022-09-15T03:31:50.731Z,7.20
2022-09-15T03:32:50.630Z,7.40
2022-09-15T03:33:50.639Z,7.20
2022-09-15T03:34:52.455Z,6.10
2022-09-15T03:35:51.014Z,6.50
2022-09-15T03:36:50.831Z,7.00
2022-09-15T03:37:50.589Z,6.70
2022-09-15T03:38:51.433Z,6.90
2022-09-15T03:39:50.638Z,6.90
2022-09-15T03:40:51.351Z,6.70
2022-09-15T03:41:51.260Z,6.10
2022-09-15T03:42:51.418Z,6.90
2022-09-15T03:43:50.564Z,6.70
2022-09-15T03:44:51.220Z,6.10
2022-09-15T03:45:50.989Z,7.20
2022-09-15T03:46:50.490Z,7.30
2022-09-15T03:47:51.191Z,7.00
2022-09-15T03:48:50.470Z,7.40
2022-09-15T03:49:51.256Z,7.20
2022-09-15T03:50:50.579Z,7.10
2022-09-15T03:51:50.737Z,7.60
2022-09-15T03:52:53.595Z,7.40
2022-09-15T03:53:51.490Z,8.30
2022-09-15T03:54:51.165Z,8.60
2022-09-15T03:55:50.910Z,8.10
2022-09-15T03:56:50.372Z,9.10
2022-09-15T03:57:50.390Z,8.60
2022-09-15T03:58:50.371Z,8.00
2022-09-15T03:59:50.391Z,9.80
2022-09-15T04:00:51.298Z,9.10
2022-09-15T04:01:50.424Z,9.10
2022-09-15T04:02:50.332Z,9.00
2022-09-15T04:03:51.474Z,8.90
2022-09-15T04:04:51.091Z,8.60
2022-09-15T04:05:51.002Z,9.30
2022-09-15T04:06:51.164Z,8.60
2022-09-15T04:07:51.073Z,9.60
2022-09-15T04:08:50.309Z,8.60
2022-09-15T04:09:50.828Z,8.40
2022-09-15T04:10:51.032Z,8.80
2022-09-15T04:11:50.212Z,9.40
2022-09-15T04:12:51.100Z,8.30
2022-09-15T04:13:51.033Z,8.10
2022-09-15T04:14:50.171Z,8.70
2022-09-15T04:15:50.193Z,8.10
2022-09-15T04:16:50.969Z,8.30
2022-09-15T04:17:50.162Z,7.70
2022-09-15T04:18:50.131Z,8.20
2022-09-15T04:19:50.132Z,7.80
2022-09-15T04:20:50.112Z,7.40
2022-09-15T04:21:50.164Z,7.90
2022-09-15T04:22:50.906Z,7.80
2022-09-15T04:23:50.113Z,8.00
2022-09-15T04:24:50.121Z,8.00
2022-09-15T04:25:50.050Z,7.10
2022-09-15T04:26:50.771Z,8.00
2022-09-15T04:27:50.079Z,6.80
2022-09-15T04:28:50.001Z,7.90
2022-09-15T04:29:50.851Z,7.90
2022-09-15T04:30:50.912Z,7.00
2022-09-15T04:31:50.060Z,6.50
2022-09-15T04:32:50.068Z,6.80
2022-09-15T04:33:50.870Z,7.40
2022-09-15T04:34:50.655Z,6.60
2022-09-15T04:35:49.952Z,7.50
2022-09-15T04:36:49.944Z,7.00
2022-09-15T04:37:49.910Z,8.30
2022-09-15T04:38:50.741Z,8.10
2022-09-15T04:39:49.960Z,7.80
2022-09-15T04:40:49.883Z,8.40
2022-09-15T04:41:50.610Z,6.80
2022-09-15T04:42:50.770Z,8.90
2022-09-15T04:43:49.902Z,8.50
2022-09-15T04:44:50.580Z,7.40
2022-09-15T04:45:50.601Z,7.40
2022-09-15T04:46:50.708Z,8.10
2022-09-15T04:47:50.555Z,8.50
2022-09-15T04:48:50.131Z,8.40
2022-09-15T04:49:49.780Z,8.00
2022-09-15T04:50:49.751Z,7.40
2022-09-15T04:51:49.882Z,8.00
2022-09-15T04:52:49.934Z,8.00
2022-09-15T04:53:49.768Z,7.70
2022-09-15T04:54:49.728Z,7.60
2022-09-15T04:55:50.410Z,7.80
2022-09-15T04:56:49.801Z,7.90
2022-09-15T04:57:50.613Z,7.70
2022-09-15T04:58:49.660Z,8.10
2022-09-15T04:59:50.430Z,7.10
2022-09-15T05:00:50.470Z,7.20
2022-09-15T05:01:50.513Z,7.10
2022-09-15T05:02:49.633Z,7.30
2022-09-15T05:03:50.568Z,7.00
2022-09-15T05:04:50.310Z,7.90
2022-09-15T05:05:49.616Z,7.50
2022-09-15T05:06:49.614Z,7.30
2022-09-15T05:07:50.425Z,6.70
2022-09-15T05:08:49.561Z,7.60
2022-09-15T05:09:50.342Z,7.30
2022-09-15T05:10:49.651Z,7.90
2022-09-15T05:11:49.532Z,8.90
2022-09-15T05:12:49.706Z,8.10
2022-09-15T05:13:49.530Z,8.50
2022-09-15T05:14:50.262Z,9.20
2022-09-15T05:15:50.353Z,9.30
2022-09-15T05:16:50.333Z,9.60
2022-09-15T05:17:50.230Z,9.90
2022-09-15T05:18:49.451Z,9.30
2022-09-15T05:19:50.162Z,9.50
2022-09-15T05:20:50.209Z,9.70
2022-09-15T05:21:49.429Z,10.50
2022-09-15T05:22:49.410Z,10.70
2022-09-15T05:23:50.187Z,11.40
2022-09-15T05:24:50.186Z,11.50
2022-09-15T05:25:49.381Z,11.60
2022-09-15T05:26:49.370Z,11.10
2022-09-15T05:27:49.360Z,9.70
2022-09-15T05:28:50.213Z,11.10
2022-09-15T05:29:50.106Z,10.30
2022-09-15T05:30:49.415Z,9.80
2022-09-15T05:31:49.548Z,10.00
2022-09-15T05:32:49.590Z,9.90
2022-09-15T05:33:49.979Z,8.90
2022-09-15T05:34:49.287Z,7.40
2022-09-15T05:35:49.570Z,9.20
2022-09-15T05:36:49.582Z,9.10
2022-09-15T05:37:49.239Z,9.80
2022-09-15T05:38:49.280Z,9.10
2022-09-15T05:39:49.971Z,10.30
2022-09-15T05:40:49.289Z,9.50
2022-09-15T05:41:49.979Z,9.20
2022-09-15T05:42:49.879Z,9.40
2022-09-15T05:43:50.040Z,10.40
2022-09-15T05:44:49.950Z,9.50
2022-09-15T05:45:49.856Z,9.50
2022-09-15T05:46:50.068Z,9.90
2022-09-15T05:47:49.099Z,10.50
2022-09-15T05:48:49.244Z,10.20
2022-09-15T05:49:49.090Z,10.40
2022-09-15T05:50:49.761Z,10.10
2022-09-15T05:51:49.781Z,9.30
2022-09-15T05:52:49.050Z,10.30
2022-09-15T05:53:49.190Z,9.60
2022-09-15T05:54:49.039Z,10.10
2022-09-15T05:55:49.134Z,8.60
2022-09-15T05:56:49.059Z,9.70
2022-09-15T05:57:49.205Z,8.70
2022-09-15T05:58:49.082Z,10.10
2022-09-15T05:59:49.812Z,9.60
2022-09-15T06:00:49.689Z,10.30
2022-09-15T06:01:49.754Z,9.90
2022-09-15T06:02:49.875Z,8.70
2022-09-15T06:03:49.659Z,9.30
2022-09-15T06:04:49.816Z,10.50
2022-09-15T06:05:48.909Z,11.00
2022-09-15T06:06:49.629Z,10.70
2022-09-15T06:07:49.782Z,10.20
2022-09-15T06:08:50.034Z,11.30
2022-09-15T06:09:49.589Z,12.30
2022-09-15T06:10:49.610Z,12.10
2022-09-15T06:11:48.830Z,11.70
2022-09-15T06:12:48.902Z,11.40
2022-09-15T06:13:49.730Z,11.50
2022-09-15T06:14:48.825Z,11.00
2022-09-15T06:15:49.570Z,13.00
2022-09-15T06:16:49.549Z,11.80
2022-09-15T06:17:48.769Z,11.90
2022-09-15T06:18:48.778Z,11.90
2022-09-15T06:19:48.758Z,11.70
2022-09-15T06:20:49.562Z,12.10
2022-09-15T06:21:49.460Z,12.60
2022-09-15T06:22:49.488Z,13.20
2022-09-15T06:23:50.918Z,11.60
2022-09-15T06:24:48.699Z,12.80
2022-09-15T06:25:49.588Z,12.80
2022-09-15T06:26:49.359Z,12.30
2022-09-15T06:27:48.880Z,13.10
2022-09-15T06:28:48.651Z,12.60
2022-09-15T06:29:48.901Z,14.40
2022-09-15T06:30:48.909Z,14.00
2022-09-15T06:31:49.018Z,13.00
2022-09-15T06:32:48.648Z,14.00
2022-09-15T06:33:48.627Z,13.80
2022-09-15T06:34:48.580Z,13.30
2022-09-15T06:35:48.857Z,13.20
2022-09-15T06:36:48.549Z,11.10
2022-09-15T06:37:49.322Z,13.70
2022-09-15T06:38:48.522Z,14.40
2022-09-15T06:39:48.539Z,12.60
2022-09-15T06:40:48.501Z,13.60
2022-09-15T06:42:01.724Z,14.80
2022-09-15T06:42:50.265Z,14.70
2022-09-15T06:43:49.477Z,15.40
2022-09-15T06:44:48.480Z,14.90
2022-09-15T06:45:49.256Z,15.10
2022-09-15T06:46:49.225Z,15.90
2022-09-15T06:48:02.061Z,16.40
2022-09-15T06:48:49.483Z,18.10
2022-09-15T06:49:48.520Z,17.70
2022-09-15T06:50:48.419Z,16.10
2022-09-15T06:51:48.376Z,17.50
2022-09-15T06:52:48.539Z,17.40
2022-09-15T06:53:48.547Z,15.80
2022-09-15T06:54:48.380Z,14.60
2022-09-15T06:55:48.340Z,18.60
2022-09-15T06:56:48.345Z,18.00
2022-09-15T06:57:48.370Z,18.10
2022-09-15T06:58:48.389Z,18.00
2022-09-15T06:59:48.310Z,17.20
2022-09-15T07:00:48.338Z,17.60
2022-09-15T07:01:48.296Z,19.00
2022-09-15T07:02:48.549Z,18.10
2022-09-15T07:03:49.082Z,16.00
2022-09-15T07:04:49.178Z,17.80
2022-09-15T07:05:49.082Z,18.10
2022-09-15T07:06:48.617Z,18.20
2022-09-15T07:07:48.179Z,16.00
2022-09-15T07:08:48.491Z,17.30
2022-09-15T07:09:49.245Z,17.90
2022-09-15T07:10:48.169Z,18.20
2022-09-15T07:11:48.208Z,12.20
2022-09-15T07:12:48.919Z,12.30
2022-09-15T07:13:48.290Z,17.10
2022-09-15T07:14:48.129Z,16.50
2022-09-15T07:15:48.100Z,13.50
2022-09-15T07:16:48.151Z,13.70
2022-09-15T07:17:48.104Z,18.00
2022-09-15T07:18:48.069Z,13.70
2022-09-15T07:19:48.235Z,14.60
2022-09-15T07:20:48.048Z,11.80
2022-09-15T07:21:48.019Z,18.70
2022-09-15T07:22:48.031Z,13.00
2022-09-15T07:23:48.754Z,14.00
2022-09-15T07:24:48.100Z,18.50
2022-09-15T07:25:48.703Z,16.30
2022-09-15T07:26:48.854Z,19.80
2022-09-15T07:27:47.977Z,18.00
2022-09-15T07:28:48.667Z,18.70
2022-09-15T07:29:47.929Z,17.00
2022-09-15T07:30:47.956Z,18.70
2022-09-15T07:31:47.934Z,17.60
2022-09-15T07:32:48.060Z,18.50
2022-09-15T07:33:48.713Z,17.20
2022-09-15T07:34:48.109Z,16.90
2022-09-15T07:35:47.948Z,14.80
2022-09-15T07:36:47.864Z,16.90
2022-09-15T07:37:47.839Z,12.40
2022-09-15T07:38:47.906Z,15.90
2022-09-15T07:39:48.691Z,15.90
2022-09-15T07:40:47.950Z,16.80
2022-09-15T07:41:47.848Z,12.90
2022-09-15T07:42:47.831Z,17.30
2022-09-15T07:43:47.781Z,14.60
2022-09-15T07:44:47.781Z,17.70
2022-09-15T07:45:48.620Z,15.70
2022-09-15T07:46:47.809Z,17.20
2022-09-15T07:47:47.989Z,16.90
2022-09-15T07:48:48.389Z,14.70
2022-09-15T07:49:47.699Z,15.30
2022-09-15T07:50:48.608Z,11.50
2022-09-15T07:51:47.682Z,13.00
2022-09-15T07:52:47.929Z,15.20
2022-09-15T07:53:47.657Z,15.40
2022-09-15T07:54:47.672Z,17.40
2022-09-15T07:55:48.040Z,12.00
2022-09-15T07:56:48.538Z,16.40
2022-09-15T07:57:48.060Z,15.20
2022-09-15T07:58:47.618Z,15.80
2022-09-15T07:59:47.612Z,11.30
2022-09-15T08:00:47.633Z,12.90
2022-09-15T08:01:48.436Z,15.10
2022-09-15T08:02:48.001Z,15.90
2022-09-15T08:03:47.549Z,14.60
2022-09-15T08:04:47.540Z,16.00
2022-09-15T08:05:48.443Z,13.60
2022-09-15T08:06:48.355Z,15.20
2022-09-15T08:07:47.614Z,16.20
2022-09-15T08:08:47.499Z,15.60
2022-09-15T08:09:47.555Z,15.50
2022-09-15T08:10:47.491Z,15.80
2022-09-15T08:11:47.451Z,14.50
2022-09-15T08:12:47.550Z,16.50
2022-09-15T08:13:47.550Z,16.00
2022-09-15T08:14:47.511Z,13.70
2022-09-15T08:15:47.422Z,16.70
2022-09-15T08:16:47.411Z,15.70
2022-09-15T08:17:47.580Z,13.60
2022-09-15T08:18:47.390Z,13.20
2022-09-15T08:19:47.365Z,15.20
2022-09-15T08:20:47.416Z,10.80
2022-09-15T08:21:47.344Z,13.80
2022-09-15T08:22:47.347Z,11.90
2022-09-15T08:23:47.322Z,15.70
2022-09-15T08:24:47.330Z,14.50
2022-09-15T08:25:47.391Z,15.30
2022-09-15T08:26:48.212Z,14.90
2022-09-15T08:27:47.293Z,10.70
2022-09-15T08:28:47.279Z,15.30
2022-09-15T08:29:47.299Z,16.30
2022-09-15T08:30:47.251Z,16.80
2022-09-15T08:31:47.282Z,15.40
2022-09-15T08:32:47.271Z,14.30
2022-09-15T08:33:47.232Z,15.80
2022-09-15T08:34:47.221Z,15.10
2022-09-15T08:35:47.171Z,14.90
2022-09-15T08:36:47.180Z,14.00
2022-09-15T08:37:47.155Z,12.80
2022-09-15T08:38:47.165Z,16.00
2022-09-15T08:39:47.892Z,12.00
2022-09-15T08:40:47.144Z,12.30
2022-09-15T08:41:47.111Z,11.80
2022-09-15T08:42:47.115Z,13.70
2022-09-15T08:43:47.092Z,14.30
2022-09-15T08:44:47.107Z,13.60
2022-09-15T08:45:47.063Z,11.90
2022-09-15T08:46:47.398Z,12.60
2022-09-15T08:47:47.383Z,13.60
2022-09-15T08:48:47.052Z,13.00
2022-09-15T08:49:52.020Z,11.60
2022-09-15T08:50:48.313Z,12.90
2022-09-15T08:51:47.293Z,12.90
2022-09-15T08:52:47.004Z,13.00
2022-09-15T08:53:46.990Z,12.80
2022-09-15T08:54:46.981Z,13.10
2022-09-15T08:55:46.948Z,12.70
2022-09-15T08:56:46.992Z,12.90
2022-09-15T08:57:46.932Z,12.90
2022-09-15T08:58:46.931Z,13.00
2022-09-15T08:59:47.143Z,11.70
2022-09-15T09:00:47.766Z,11.50
2022-09-15T09:01:46.906Z,9.30
2022-09-15T09:02:46.933Z,11.50
2022-09-15T09:03:46.895Z,10.10
2022-09-15T09:04:46.863Z,10.70
2022-09-15T09:05:46.836Z,10.00
2022-09-15T09:06:46.886Z,11.50
2022-09-15T09:07:47.615Z,10.40
2022-09-15T09:08:47.003Z,9.30
2022-09-15T09:09:46.793Z,11.00
2022-09-15T09:10:46.790Z,9.70
2022-09-15T09:11:46.762Z,9.20
2022-09-15T09:12:46.824Z,9.70
2022-09-15T09:13:46.744Z,8.80
2022-09-15T09:14:46.754Z,8.70
2022-09-15T09:15:46.770Z,9.10
2022-09-15T09:16:46.725Z,7.90
2022-09-15T09:17:46.700Z,8.90
2022-09-15T09:18:46.707Z,7.90
2022-09-15T09:19:46.677Z,7.70
2022-09-15T09:20:46.674Z,9.20
2022-09-15T09:21:46.653Z,10.30
2022-09-15T09:22:46.653Z,9.80
2022-09-15T09:23:46.634Z,9.20
2022-09-15T09:24:46.639Z,9.80
2022-09-15T09:25:46.625Z,9.90
2022-09-15T09:26:46.614Z,8.50
2022-09-15T09:27:47.494Z,10.00
2022-09-15T09:28:47.418Z,9.50
2022-09-15T09:29:46.573Z,7.90
2022-09-15T09:30:46.604Z,9.00
2022-09-15T09:31:46.540Z,8.90
2022-09-15T09:32:46.545Z,8.10
2022-09-15T09:33:47.967Z,9.60
2022-09-15T09:34:46.545Z,8.60
2022-09-15T09:35:46.504Z,8.60
2022-09-15T09:36:46.495Z,8.90
2022-09-15T09:37:46.474Z,9.30
2022-09-15T09:38:46.476Z,7.80
2022-09-15T09:39:46.507Z,9.40
2022-09-15T09:40:46.456Z,8.00
2022-09-15T09:41:46.432Z,7.70
2022-09-15T09:42:46.432Z,7.10
2022-09-15T09:43:46.405Z,7.00
2022-09-15T09:44:46.413Z,6.20
2022-09-15T09:45:46.431Z,7.40
2022-09-15T09:46:46.385Z,8.30
2022-09-15T09:47:46.384Z,6.10
2022-09-15T09:48:46.832Z,6.00
2022-09-15T09:49:46.335Z,7.40
2022-09-15T09:50:46.383Z,6.90
2022-09-15T09:51:46.315Z,6.90
2022-09-15T09:52:46.312Z,6.80
2022-09-15T09:53:46.306Z,6.70
2022-09-15T09:54:46.286Z,6.70
2022-09-15T09:55:46.286Z,5.80
2022-09-15T09:56:46.256Z,6.20
2022-09-15T09:57:46.264Z,5.50
2022-09-15T09:58:46.237Z,5.80
2022-09-15T09:59:46.246Z,5.90
2022-09-15T10:00:46.273Z,6.50
2022-09-15T10:01:46.250Z,6.50
2022-09-15T10:02:46.236Z,5.90
2022-09-15T10:03:46.206Z,6.10
2022-09-15T10:04:46.223Z,6.30
2022-09-15T10:05:46.205Z,5.50
2022-09-15T10:06:46.137Z,6.90
2022-09-15T10:07:46.197Z,6.10
2022-09-15T10:08:46.867Z,5.20
2022-09-15T10:09:46.888Z,5.60
2022-09-15T10:10:46.107Z,5.10
2022-09-15T10:11:46.097Z,4.30
2022-09-15T10:12:46.076Z,4.40
2022-09-15T10:13:46.094Z,4.40
2022-09-15T10:14:46.065Z,4.30
2022-09-15T10:15:46.067Z,5.20
2022-09-15T10:16:46.248Z,4.50
2022-09-15T10:17:46.039Z,4.80
2022-09-15T10:18:46.009Z,5.00
2022-09-15T10:19:46.019Z,3.90
2022-09-15T10:21:21.787Z,4.10
2022-09-15T10:21:46.467Z,4.30
2022-09-15T10:22:47.070Z,4.40
2022-09-15T10:23:45.978Z,4.00
2022-09-15T10:24:45.947Z,4.20
2022-09-15T10:26:01.352Z,3.20
2022-09-15T10:26:46.919Z,4.00
2022-09-15T10:27:45.937Z,4.40
2022-09-15T10:28:45.900Z,4.30
2022-09-15T10:29:45.906Z,3.80
2022-09-15T10:30:46.810Z,3.70
2022-09-15T10:31:46.766Z,3.50
2022-09-15T10:32:45.878Z,3.30
2022-09-15T10:33:45.858Z,2.90
2022-09-15T10:34:45.838Z,2.80
2022-09-15T10:35:45.838Z,2.60
2022-09-15T10:36:45.808Z,2.60
2022-09-15T10:37:45.960Z,2.20
2022-09-15T10:38:45.802Z,2.10
2022-09-15T10:39:45.875Z,2.10
2022-09-15T10:40:45.769Z,2.40
2022-09-15T10:41:45.767Z,2.30
2022-09-15T10:42:45.890Z,2.10
2022-09-15T10:43:46.215Z,2.20
2022-09-15T10:44:45.731Z,2.10
2022-09-15T10:45:45.784Z,1.90
2022-09-15T10:46:45.698Z,1.70
2022-09-15T10:47:45.699Z,1.40
2022-09-15T10:48:45.693Z,1.50
2022-09-15T10:49:45.700Z,1.90
2022-09-15T10:50:45.692Z,1.80
2022-09-15T10:51:46.584Z,1.60
2022-09-15T10:52:45.858Z,2.00
2022-09-15T10:53:45.630Z,1.90
2022-09-15T10:54:45.770Z,1.80
2022-09-15T10:55:53.650Z,1.80
2022-09-15T10:56:46.593Z,1.90
2022-09-15T10:57:45.590Z,2.10
2022-09-15T10:58:45.962Z,2.60
2022-09-15T10:59:45.568Z,2.30
2022-09-15T11:00:45.565Z,2.70
2022-09-15T11:01:45.656Z,2.20
2022-09-15T11:02:45.520Z,2.50
2022-09-15T11:03:45.521Z,2.30
2022-09-15T11:04:45.491Z,2.60
2022-09-15T11:05:45.540Z,2.90
2022-09-15T11:06:45.480Z,2.80
2022-09-15T11:07:45.492Z,2.20
2022-09-15T11:08:45.554Z,2.10
2022-09-15T11:09:45.451Z,2.50
2022-09-15T11:10:45.444Z,2.50
2022-09-15T11:11:45.465Z,2.40
2022-09-15T11:12:45.588Z,2.60
2022-09-15T11:13:45.421Z,2.20
2022-09-15T11:14:45.381Z,2.50
2022-09-15T11:15:46.331Z,2.70
2022-09-15T11:16:46.297Z,2.60
2022-09-15T11:17:45.372Z,2.90
2022-09-15T11:18:45.341Z,2.40
2022-09-15T11:19:45.342Z,2.70
2022-09-15T11:20:45.312Z,2.30
2022-09-15T11:21:45.642Z,2.70
2022-09-15T11:22:49.416Z,2.70
2022-09-15T11:23:45.346Z,2.80
2022-09-15T11:24:45.281Z,2.50
2022-09-15T11:25:45.271Z,2.60
2022-09-15T11:26:45.255Z,2.70
2022-09-15T11:27:45.272Z,2.40
2022-09-15T11:28:45.252Z,2.00
2022-09-15T11:29:45.232Z,2.60
2022-09-15T11:30:47.798Z,2.80
2022-09-15T11:31:45.346Z,2.10
2022-09-15T11:32:45.972Z,2.50
2022-09-15T11:33:45.261Z,2.70
2022-09-15T11:34:45.162Z,2.60
2022-09-15T11:35:45.163Z,2.20
2022-09-15T11:36:45.142Z,2.30
2022-09-15T11:37:46.006Z,2.40
2022-09-15T11:38:45.123Z,2.40
2022-09-15T11:39:45.165Z,2.40
2022-09-15T11:40:45.093Z,2.50
2022-09-15T11:41:45.093Z,2.10
2022-09-15T11:42:45.070Z,2.20
2022-09-15T11:43:45.965Z,2.70
2022-09-15T11:44:45.768Z,2.80
2022-09-15T11:45:45.606Z,2.60
2022-09-15T11:46:45.070Z,3.50
2022-09-15T11:47:45.104Z,2.50
2022-09-15T11:48:45.061Z,2.90
2022-09-15T11:49:45.882Z,2.60
2022-09-15T11:50:45.703Z,2.60
2022-09-15T11:51:45.868Z,2.50
2022-09-15T11:52:44.974Z,2.70
2022-09-15T11:53:45.757Z,2.70
2022-09-15T11:54:45.656Z,2.40
2022-09-15T11:55:45.737Z,2.70
2022-09-15T11:56:45.635Z,2.60
2022-09-15T11:57:44.945Z,2.80
2022-09-15T11:58:44.910Z,2.40
2022-09-15T11:59:45.194Z,2.50
2022-09-15T12:00:45.595Z,2.30
2022-09-15T12:01:44.965Z,2.10
2022-09-15T12:02:45.613Z,2.30
2022-09-15T12:03:45.566Z,2.10
2022-09-15T12:04:44.823Z,1.90
2022-09-15T12:05:44.826Z,2.60
2022-09-15T12:06:46.121Z,2.30
2022-09-15T12:07:44.834Z,2.30
2022-09-15T12:08:45.594Z,2.10
2022-09-15T12:09:44.785Z,2.60
2022-09-15T12:10:44.849Z,2.40
2022-09-15T12:11:45.563Z,2.10
2022-09-15T12:12:44.784Z,2.30
2022-09-15T12:13:45.553Z,2.10
2022-09-15T12:14:44.874Z,2.20
2022-09-15T12:15:45.262Z,2.10
2022-09-15T12:16:45.094Z,2.40
2022-09-15T12:17:44.706Z,2.70
2022-09-15T12:18:46.872Z,2.00
2022-09-15T12:19:45.558Z,2.30
2022-09-15T12:20:45.465Z,2.20
2022-09-15T12:21:44.672Z,2.70
2022-09-15T12:22:45.535Z,2.40
2022-09-15T12:23:44.700Z,2.30
2022-09-15T12:24:44.618Z,2.30
2022-09-15T12:25:45.497Z,2.40
2022-09-15T12:26:44.645Z,1.80
2022-09-15T12:27:44.598Z,2.30
2022-09-15T12:28:45.377Z,1.90
2022-09-15T12:29:44.568Z,2.50
2022-09-15T12:30:44.527Z,2.50
2022-09-15T12:31:45.437Z,2.40
2022-09-15T12:32:44.525Z,2.50
2022-09-15T12:33:44.537Z,2.30
2022-09-15T12:34:44.548Z,2.50
2022-09-15T12:35:44.716Z,2.00
2022-09-15T12:36:44.464Z,2.10
2022-09-15T12:37:44.678Z,2.10
2022-09-15T12:38:45.050Z,1.90
2022-09-15T12:39:44.464Z,2.30
2022-09-15T12:40:44.419Z,2.10
2022-09-15T12:41:44.761Z,2.10
2022-09-15T12:42:44.397Z,2.00
2022-09-15T12:43:44.872Z,1.80
2022-09-15T12:44:44.397Z,1.80
2022-09-15T12:45:44.397Z,1.70
2022-09-15T12:46:45.231Z,1.60
2022-09-15T12:47:44.357Z,1.70
2022-09-15T12:48:47.327Z,1.90
2022-09-15T12:49:44.342Z,1.90
2022-09-15T12:50:44.319Z,2.40
2022-09-15T12:51:44.347Z,1.90
2022-09-15T12:52:45.209Z,1.70
2022-09-15T12:53:46.272Z,2.00
2022-09-15T12:54:45.033Z,2.10
2022-09-15T12:55:44.289Z,2.20
2022-09-15T12:56:44.260Z,1.80
2022-09-15T12:57:44.307Z,1.90
2022-09-15T12:58:44.228Z,1.90
2022-09-15T12:59:44.217Z,1.80
2022-09-15T13:01:00.628Z,2.00
2022-09-15T13:01:46.098Z,2.10
2022-09-15T13:02:45.024Z,2.10
2022-09-15T13:03:44.921Z,2.00
2022-09-15T13:04:45.085Z,1.90
2022-09-15T13:05:44.986Z,2.00
2022-09-15T13:06:44.150Z,2.10
2022-09-15T13:07:44.211Z,1.90
2022-09-15T13:08:44.109Z,2.00
2022-09-15T13:09:44.870Z,1.80
2022-09-15T13:10:44.091Z,2.20
2022-09-15T13:12:44.090Z,2.20